sensor_id;sensor_type;location;lat;lon;timestamp;pressure;altitude;pressure_sealevel;temperature;humidity
13593;BME280;6867;50.998;4.250;2023-04-15T00:01:41;100362.97;;;12.51;65.21
13593;BME280;6867;50.998;4.250;2023-04-15T00:04:10;100362.88;;;12.57;65.27
13593;BME280;6867;50.998;4.250;2023-04-15T00:06:37;100368.84;;;12.59;65.52
13593;BME280;6867;50.998;4.250;2023-04-15T00:09:04;100373.78;;;12.62;65.37
13593;BME280;6867;50.998;4.250;2023-04-15T00:11:30;100362.78;;;12.64;65.47
13593;BME280;6867;50.998;4.250;2023-04-15T00:13:57;100354.31;;;12.60;64.96
13593;BME280;6867;50.998;4.250;2023-04-15T00:16:25;100351.50;;;12.55;64.53
13593;BME280;6867;50.998;4.250;2023-04-15T00:18:52;100353.75;;;12.58;64.62
13593;BME280;6867;50.998;4.250;2023-04-15T00:21:20;100354.16;;;12.43;65.38
13593;BME280;6867;50.998;4.250;2023-04-15T00:23:47;100359.56;;;12.43;65.13
13593;BME280;6867;50.998;4.250;2023-04-15T00:26:18;100357.09;;;12.42;65.17
13593;BME280;6867;50.998;4.250;2023-04-15T00:28:45;100366.00;;;12.42;65.32
13593;BME280;6867;50.998;4.250;2023-04-15T00:31:12;100383.44;;;12.40;65.77
13593;BME280;6867;50.998;4.250;2023-04-15T00:33:39;100384.38;;;12.45;65.80
13593;BME280;6867;50.998;4.250;2023-04-15T00:36:06;100401.84;;;12.43;66.35
13593;BME280;6867;50.998;4.250;2023-04-15T00:38:36;100405.22;;;12.38;66.69
13593;BME280;6867;50.998;4.250;2023-04-15T00:41:04;100405.66;;;12.35;66.79
13593;BME280;6867;50.998;4.250;2023-04-15T00:43:30;100406.13;;;12.32;66.89
13593;BME280;6867;50.998;4.250;2023-04-15T00:45:57;100417.63;;;12.39;66.99
13593;BME280;6867;50.998;4.250;2023-04-15T00:48:25;100418.06;;;12.36;66.93
13593;BME280;6867;50.998;4.250;2023-04-15T00:50:52;100440.09;;;12.15;68.69
13593;BME280;6867;50.998;4.250;2023-04-15T00:53:19;100434.44;;;12.05;68.55
13593;BME280;6867;50.998;4.250;2023-04-15T00:55:47;100432.34;;;11.88;69.18
13593;BME280;6867;50.998;4.250;2023-04-15T00:58:15;100430.38;;;11.77;69.61
13593;BME280;6867;50.998;4.250;2023-04-15T01:00:42;100435.75;;;11.77;70.19
13593;BME280;6867;50.998;4.250;2023-04-15T01:03:09;100449.50;;;11.69;71.36
13593;BME280;6867;50.998;4.250;2023-04-15T01:05:35;100440.53;;;11.75;71.58
13593;BME280;6867;50.998;4.250;2023-04-15T01:08:03;100429.97;;;11.73;71.63
13593;BME280;6867;50.998;4.250;2023-04-15T01:10:30;100424.16;;;11.77;71.90
13593;BME280;6867;50.998;4.250;2023-04-15T01:12:58;100437.91;;;11.68;72.33
13593;BME280;6867;50.998;4.250;2023-04-15T01:15:25;100418.78;;;11.77;71.96
13593;BME280;6867;50.998;4.250;2023-04-15T01:17:52;100421.63;;;11.82;71.78
13593;BME280;6867;50.998;4.250;2023-04-15T01:20:18;100420.41;;;11.84;72.05
13593;BME280;6867;50.998;4.250;2023-04-15T01:22:47;100414.84;;;11.79;72.32
13593;BME280;6867;50.998;4.250;2023-04-15T01:25:17;100420.41;;;11.84;72.69
13593;BME280;6867;50.998;4.250;2023-04-15T01:27:46;100420.41;;;11.84;72.45
13593;BME280;6867;50.998;4.250;2023-04-15T01:30:13;100427.09;;;11.75;73.00
13593;BME280;6867;50.998;4.250;2023-04-15T01:32:39;100423.09;;;11.78;73.00
13593;BME280;6867;50.998;4.250;2023-04-15T01:35:07;100426.03;;;11.76;73.12
13593;BME280;6867;50.998;4.250;2023-04-15T01:37:34;100434.16;;;11.69;73.71
13593;BME280;6867;50.998;4.250;2023-04-15T01:40:01;100433.44;;;11.62;74.14
13593;BME280;6867;50.998;4.250;2023-04-15T01:42:27;100445.97;;;11.68;74.22
13593;BME280;6867;50.998;4.250;2023-04-15T01:44:55;100440.31;;;11.77;74.12
13593;BME280;6867;50.998;4.250;2023-04-15T01:47:22;100453.00;;;11.69;75.05
13593;BME280;6867;50.998;4.250;2023-04-15T01:49:49;100451.97;;;11.70;75.05
13593;BME280;6867;50.998;4.250;2023-04-15T01:52:15;100437.38;;;11.78;74.25
13593;BME280;6867;50.998;4.250;2023-04-15T01:54:42;100445.94;;;11.75;74.97
13593;BME280;6867;50.998;4.250;2023-04-15T01:57:09;100440.97;;;11.72;74.92
13593;BME280;6867;50.998;4.250;2023-04-15T01:59:36;100441.56;;;11.74;74.88
13593;BME280;6867;50.998;4.250;2023-04-15T02:02:04;100459.44;;;11.68;75.85
13593;BME280;6867;50.998;4.250;2023-04-15T02:04:30;100447.19;;;11.72;75.52
13593;BME280;6867;50.998;4.250;2023-04-15T02:06:58;100441.81;;;11.72;75.32
13593;BME280;6867;50.998;4.250;2023-04-15T02:09:25;100447.56;;;11.76;75.13
13593;BME280;6867;50.998;4.250;2023-04-15T02:11:52;100442.41;;;11.75;75.47
13593;BME280;6867;50.998;4.250;2023-04-15T02:14:19;100439.50;;;11.76;75.51
13593;BME280;6867;50.998;4.250;2023-04-15T02:16:45;100435.31;;;11.80;75.38
13593;BME280;6867;50.998;4.250;2023-04-15T02:19:13;100422.66;;;11.81;75.67
13593;BME280;6867;50.998;4.250;2023-04-15T02:21:40;100430.38;;;11.77;75.64
13593;BME280;6867;50.998;4.250;2023-04-15T02:24:07;100438.19;;;11.79;75.51
13593;BME280;6867;50.998;4.250;2023-04-15T02:26:34;100436.38;;;11.79;75.78
13593;BME280;6867;50.998;4.250;2023-04-15T02:29:00;100438.81;;;11.81;75.86
13593;BME280;6867;50.998;4.250;2023-04-15T02:31:27;100440.22;;;11.65;75.83
13593;BME280;6867;50.998;4.250;2023-04-15T02:33:54;100445.44;;;11.60;75.83
13593;BME280;6867;50.998;4.250;2023-04-15T02:36:22;100442.16;;;11.58;76.37
13593;BME280;6867;50.998;4.250;2023-04-15T02:38:49;100441.41;;;11.51;76.32
13593;BME280;6867;50.998;4.250;2023-04-15T02:41:15;100451.34;;;11.50;76.21
13593;BME280;6867;50.998;4.250;2023-04-15T02:43:43;100443.03;;;11.52;76.46
13593;BME280;6867;50.998;4.250;2023-04-15T02:46:09;100454.03;;;11.50;77.02
13593;BME280;6867;50.998;4.250;2023-04-15T02:48:38;100449.25;;;11.52;76.84
13593;BME280;6867;50.998;4.250;2023-04-15T02:51:15;100451.41;;;11.62;77.16
13593;BME280;6867;50.998;4.250;2023-04-15T02:53:45;100446.72;;;11.57;76.64
13593;BME280;6867;50.998;4.250;2023-04-15T02:56:13;100453.13;;;11.56;76.68
13593;BME280;6867;50.998;4.250;2023-04-15T02:58:40;100454.63;;;11.52;76.80
13593;BME280;6867;50.998;4.250;2023-04-15T03:01:07;100464.63;;;11.45;77.21
13593;BME280;6867;50.998;4.250;2023-04-15T03:03:34;100466.72;;;11.43;77.56
13593;BME280;6867;50.998;4.250;2023-04-15T03:06:01;100472.97;;;11.37;77.50
13593;BME280;6867;50.998;4.250;2023-04-15T03:08:27;100486.03;;;11.33;77.79
13593;BME280;6867;50.998;4.250;2023-04-15T03:10:57;100486.88;;;11.34;78.02
13593;BME280;6867;50.998;4.250;2023-04-15T03:13:25;100494.13;;;11.33;78.08
13593;BME280;6867;50.998;4.250;2023-04-15T03:15:51;100503.53;;;11.42;77.81
13593;BME280;6867;50.998;4.250;2023-04-15T03:18:18;100510.69;;;11.55;77.92
13593;BME280;6867;50.998;4.250;2023-04-15T03:20:45;100505.31;;;11.55;77.93
13593;BME280;6867;50.998;4.250;2023-04-15T03:23:11;100512.66;;;11.41;78.08
13593;BME280;6867;50.998;4.250;2023-04-15T03:25:38;100515.81;;;11.57;78.10
13593;BME280;6867;50.998;4.250;2023-04-15T03:28:06;100523.09;;;11.56;77.98
13593;BME280;6867;50.998;4.250;2023-04-15T03:30:33;100523.16;;;11.50;77.90
13593;BME280;6867;50.998;4.250;2023-04-15T03:33:00;100528.06;;;11.53;78.52
13593;BME280;6867;50.998;4.250;2023-04-15T03:35:26;100529.28;;;11.57;78.28
13593;BME280;6867;50.998;4.250;2023-04-15T03:37:53;100527.41;;;11.57;77.98
13593;BME280;6867;50.998;4.250;2023-04-15T03:40:20;100528.81;;;11.66;78.21
13593;BME280;6867;50.998;4.250;2023-04-15T03:42:47;100534.13;;;11.48;78.34
13593;BME280;6867;50.998;4.250;2023-04-15T03:45:15;100543.47;;;11.45;78.76
13593;BME280;6867;50.998;4.250;2023-04-15T03:47:42;100540.94;;;11.51;78.71
13593;BME280;6867;50.998;4.250;2023-04-15T03:50:09;100542.19;;;11.48;78.42
13593;BME280;6867;50.998;4.250;2023-04-15T03:52:36;100533.06;;;11.49;78.58
13593;BME280;6867;50.998;4.250;2023-04-15T03:55:03;100532.19;;;11.55;78.43
13593;BME280;6867;50.998;4.250;2023-04-15T03:57:29;100544.75;;;11.61;78.21
13593;BME280;6867;50.998;4.250;2023-04-15T03:59:56;100541.47;;;11.59;77.97
13593;BME280;6867;50.998;4.250;2023-04-15T04:02:24;100541.91;;;11.56;78.53
13593;BME280;6867;50.998;4.250;2023-04-15T04:04:52;100546.84;;;11.59;78.55
13593;BME280;6867;50.998;4.250;2023-04-15T04:07:19;100548.19;;;11.50;78.32
13593;BME280;6867;50.998;4.250;2023-04-15T04:09:45;100552.44;;;11.58;78.70
13593;BME280;6867;50.998;4.250;2023-04-15T04:12:12;100551.47;;;11.52;78.52
13593;BME280;6867;50.998;4.250;2023-04-15T04:14:39;100554.97;;;11.53;78.48
13593;BME280;6867;50.998;4.250;2023-04-15T04:17:05;100561.78;;;11.55;78.55
13593;BME280;6867;50.998;4.250;2023-04-15T04:19:33;100564.53;;;11.48;78.96
13593;BME280;6867;50.998;4.250;2023-04-15T04:22:00;100570.69;;;11.56;78.95
13593;BME280;6867;50.998;4.250;2023-04-15T04:24:27;100581.28;;;11.51;78.77
13593;BME280;6867;50.998;4.250;2023-04-15T04:26:54;100575.78;;;11.39;79.43
13593;BME280;6867;50.998;4.250;2023-04-15T04:29:21;100575.06;;;11.50;79.10
13593;BME280;6867;50.998;4.250;2023-04-15T04:31:48;100579.84;;;11.48;79.38
13593;BME280;6867;50.998;4.250;2023-04-15T04:34:14;100566.34;;;11.55;79.05
13593;BME280;6867;50.998;4.250;2023-04-15T04:36:43;100570.69;;;11.56;78.92
13593;BME280;6867;50.998;4.250;2023-04-15T04:39:09;100559.50;;;11.59;78.55
13593;BME280;6867;50.998;4.250;2023-04-15T04:41:36;100562.63;;;11.56;78.48
13593;BME280;6867;50.998;4.250;2023-04-15T04:44:03;100567.75;;;11.57;78.37
13593;BME280;6867;50.998;4.250;2023-04-15T04:46:29;100570.25;;;11.59;78.72
13593;BME280;6867;50.998;4.250;2023-04-15T04:48:56;100573.22;;;11.51;78.54
13593;BME280;6867;50.998;4.250;2023-04-15T04:51:23;100570.78;;;11.42;78.48
13593;BME280;6867;50.998;4.250;2023-04-15T04:53:51;100577.66;;;11.38;79.22
13593;BME280;6867;50.998;4.250;2023-04-15T04:56:18;100580.75;;;11.35;79.22
13593;BME280;6867;50.998;4.250;2023-04-15T04:58:45;100580.06;;;11.46;79.07
13593;BME280;6867;50.998;4.250;2023-04-15T05:01:11;100588.31;;;11.52;79.19
13593;BME280;6867;50.998;4.250;2023-04-15T05:03:38;100594.72;;;11.51;79.08
13593;BME280;6867;50.998;4.250;2023-04-15T05:06:05;100601.16;;;11.50;78.87
13593;BME280;6867;50.998;4.250;2023-04-15T05:08:33;100608.34;;;11.56;78.72
13593;BME280;6867;50.998;4.250;2023-04-15T05:11:02;100610.94;;;11.69;78.71
13593;BME280;6867;50.998;4.250;2023-04-15T05:13:28;100615.25;;;11.70;78.53
13593;BME280;6867;50.998;4.250;2023-04-15T05:15:55;100623.59;;;11.62;78.39
13593;BME280;6867;50.998;4.250;2023-04-15T05:18:22;100624.94;;;11.78;78.54
13593;BME280;6867;50.998;4.250;2023-04-15T05:20:49;100635.38;;;11.67;78.46
13593;BME280;6867;50.998;4.250;2023-04-15T05:23:16;100639.28;;;11.71;78.62
13593;BME280;6867;50.998;4.250;2023-04-15T05:25:43;100634.97;;;11.64;78.60
13593;BME280;6867;50.998;4.250;2023-04-15T05:28:11;100643.66;;;11.66;78.76
13593;BME280;6867;50.998;4.250;2023-04-15T05:30:38;100644.81;;;11.77;78.70
13593;BME280;6867;50.998;4.250;2023-04-15T05:33:05;100653.72;;;11.77;78.71
13593;BME280;6867;50.998;4.250;2023-04-15T05:35:31;100657.03;;;11.79;78.90
13593;BME280;6867;50.998;4.250;2023-04-15T05:37:58;100661.56;;;11.85;78.83
13593;BME280;6867;50.998;4.250;2023-04-15T05:40:25;100675.84;;;11.86;78.96
13593;BME280;6867;50.998;4.250;2023-04-15T05:42:52;100676.78;;;11.98;79.13
13593;BME280;6867;50.998;4.250;2023-04-15T05:45:20;100666.25;;;11.96;78.92
13593;BME280;6867;50.998;4.250;2023-04-15T05:47:47;100682.88;;;12.12;78.96
13593;BME280;6867;50.998;4.250;2023-04-15T05:50:14;100689.09;;;12.12;78.40
13593;BME280;6867;50.998;4.250;2023-04-15T05:52:41;100710.16;;;12.22;79.15
13593;BME280;6867;50.998;4.250;2023-04-15T05:55:08;100714.91;;;12.20;79.04
13593;BME280;6867;50.998;4.250;2023-04-15T05:57:36;100715.72;;;12.45;79.46
13593;BME280;6867;50.998;4.250;2023-04-15T06:00:03;100708.94;;;12.61;78.99
13593;BME280;6867;50.998;4.250;2023-04-15T06:02:32;100710.47;;;12.94;78.94
13593;BME280;6867;50.998;4.250;2023-04-15T06:04:58;100708.44;;;13.08;78.23
13593;BME280;6867;50.998;4.250;2023-04-15T06:07:25;100696.63;;;13.09;76.86
13593;BME280;6867;50.998;4.250;2023-04-15T06:09:52;100690.25;;;13.21;76.60
13593;BME280;6867;50.998;4.250;2023-04-15T06:12:19;100708.00;;;13.48;76.78
13593;BME280;6867;50.998;4.250;2023-04-15T06:14:45;100698.81;;;13.67;76.47
13593;BME280;6867;50.998;4.250;2023-04-15T06:17:12;100698.41;;;13.93;75.87
13593;BME280;6867;50.998;4.250;2023-04-15T06:19:40;100714.16;;;14.08;74.96
13593;BME280;6867;50.998;4.250;2023-04-15T06:22:07;100713.81;;;14.16;74.71
13593;BME280;6867;50.998;4.250;2023-04-15T06:24:34;100701.00;;;14.12;74.46
13593;BME280;6867;50.998;4.250;2023-04-15T06:27:01;100709.88;;;14.42;73.90
13593;BME280;6867;50.998;4.250;2023-04-15T06:29:28;100701.50;;;14.32;73.06
13593;BME280;6867;50.998;4.250;2023-04-15T06:31:55;100702.84;;;14.65;71.98
13593;BME280;6867;50.998;4.250;2023-04-15T06:34:21;100700.59;;;14.38;71.80
13593;BME280;6867;50.998;4.250;2023-04-15T06:36:49;100699.56;;;14.51;70.83
13593;BME280;6867;50.998;4.250;2023-04-15T06:39:16;100706.66;;;14.45;70.90
13593;BME280;6867;50.998;4.250;2023-04-15T06:41:43;100687.41;;;14.30;70.49
13593;BME280;6867;50.998;4.250;2023-04-15T06:44:09;100699.53;;;14.75;69.85
13593;BME280;6867;50.998;4.250;2023-04-15T06:46:36;100698.59;;;14.92;69.30
13593;BME280;6867;50.998;4.250;2023-04-15T06:49:03;100658.88;;;14.58;66.99
13593;BME280;6867;50.998;4.250;2023-04-15T06:51:30;100657.00;;;14.58;66.98
13593;BME280;6867;50.998;4.250;2023-04-15T06:53:58;100623.03;;;14.62;64.80
13593;BME280;6867;50.998;4.250;2023-04-15T06:56:25;100607.19;;;14.94;64.21
13593;BME280;6867;50.998;4.250;2023-04-15T06:58:51;100508.75;;;14.67;61.03
13593;BME280;6867;50.998;4.250;2023-04-15T07:01:18;100534.56;;;14.86;60.76
13593;BME280;6867;50.998;4.250;2023-04-15T07:03:45;100538.75;;;14.65;60.91
13593;BME280;6867;50.998;4.250;2023-04-15T07:06:12;100518.91;;;14.60;59.90
13593;BME280;6867;50.998;4.250;2023-04-15T07:08:39;100526.13;;;14.71;60.03
13593;BME280;6867;50.998;4.250;2023-04-15T07:11:07;100522.63;;;14.99;58.77
13593;BME280;6867;50.998;4.250;2023-04-15T07:13:34;100535.59;;;14.57;59.48
13593;BME280;6867;50.998;4.250;2023-04-15T07:16:01;100539.63;;;14.83;59.27
13593;BME280;6867;50.998;4.250;2023-04-15T07:18:27;100531.94;;;14.63;58.90
13593;BME280;6867;50.998;4.250;2023-04-15T07:20:54;100527.22;;;14.99;58.15
13593;BME280;6867;50.998;4.250;2023-04-15T07:23:21;100581.47;;;15.37;58.69
13593;BME280;6867;50.998;4.250;2023-04-15T07:25:48;100550.41;;;15.40;57.83
13593;BME280;6867;50.998;4.250;2023-04-15T07:28:17;100548.38;;;15.47;57.29
13593;BME280;6867;50.998;4.250;2023-04-15T07:30:43;100591.28;;;15.55;57.89
13593;BME280;6867;50.998;4.250;2023-04-15T07:33:10;100550.31;;;15.35;56.84
13593;BME280;6867;50.998;4.250;2023-04-15T07:35:37;100523.69;;;14.98;56.40
13593;BME280;6867;50.998;4.250;2023-04-15T07:38:04;100551.34;;;14.60;57.28
13593;BME280;6867;50.998;4.250;2023-04-15T07:40:31;100566.97;;;14.46;57.09
13593;BME280;6867;50.998;4.250;2023-04-15T07:42:58;100591.53;;;14.44;58.21
13593;BME280;6867;50.998;4.250;2023-04-15T07:45:26;100583.56;;;14.50;57.46
13593;BME280;6867;50.998;4.250;2023-04-15T07:47:53;100591.78;;;14.31;57.83
13593;BME280;6867;50.998;4.250;2023-04-15T07:50:20;100571.19;;;14.42;57.21
13593;BME280;6867;50.998;4.250;2023-04-15T07:58:44;100542.56;;;14.29;55.29
13593;BME280;6867;50.998;4.250;2023-04-15T08:01:13;100573.69;;;14.20;56.20
13593;BME280;6867;50.998;4.250;2023-04-15T08:03:39;100562.16;;;14.48;55.48
13593;BME280;6867;50.998;4.250;2023-04-15T08:06:06;100544.59;;;14.74;55.21
13593;BME280;6867;50.998;4.250;2023-04-15T08:08:33;100531.38;;;14.89;54.36
13593;BME280;6867;50.998;4.250;2023-04-15T08:11:00;100548.47;;;15.07;54.38
13593;BME280;6867;50.998;4.250;2023-04-15T08:13:27;100521.84;;;15.32;53.26
13593;BME280;6867;50.998;4.250;2023-04-15T08:16:19;100563.63;;;15.87;53.35
13593;BME280;6867;50.998;4.250;2023-04-15T08:18:47;100483.41;;;15.81;51.79
13593;BME280;6867;50.998;4.250;2023-04-15T08:21:14;100491.53;;;16.03;51.08
13593;BME280;6867;50.998;4.250;2023-04-15T08:23:41;100458.88;;;16.09;50.07
13593;BME280;6867;50.998;4.250;2023-04-15T08:26:08;100498.03;;;16.02;51.11
13593;BME280;6867;50.998;4.250;2023-04-15T08:28:36;100473.59;;;16.67;49.42
13593;BME280;6867;50.998;4.250;2023-04-15T08:31:03;100450.00;;;16.90;48.70
13593;BME280;6867;50.998;4.250;2023-04-15T08:33:32;100457.88;;;16.64;48.83
13593;BME280;6867;50.998;4.250;2023-04-15T08:35:58;100454.53;;;16.84;48.27
13593;BME280;6867;50.998;4.250;2023-04-15T08:38:25;100468.53;;;16.98;48.18
13593;BME280;6867;50.998;4.250;2023-04-15T08:40:52;100482.69;;;17.05;48.49
13593;BME280;6867;50.998;4.250;2023-04-15T08:43:21;100528.16;;;17.20;49.15
13593;BME280;6867;50.998;4.250;2023-04-15T08:45:51;100505.41;;;17.58;48.08
13593;BME280;6867;50.998;4.250;2023-04-15T08:48:18;100475.34;;;17.70;46.98
13593;BME280;6867;50.998;4.250;2023-04-15T08:50:47;100526.53;;;17.88;47.73
13593;BME280;6867;50.998;4.250;2023-04-15T08:53:14;100542.72;;;18.10;47.74
13593;BME280;6867;50.998;4.250;2023-04-15T08:55:42;100501.06;;;18.00;46.76
13593;BME280;6867;50.998;4.250;2023-04-15T08:58:10;100506.22;;;17.96;47.00
13593;BME280;6867;50.998;4.250;2023-04-15T09:00:38;100493.22;;;18.03;46.27
13593;BME280;6867;50.998;4.250;2023-04-15T09:03:05;100548.50;;;17.77;47.36
13593;BME280;6867;50.998;4.250;2023-04-15T09:05:32;100524.09;;;17.55;47.39
13593;BME280;6867;50.998;4.250;2023-04-15T09:08:00;100468.50;;;17.30;46.23
13593;BME280;6867;50.998;4.250;2023-04-15T09:10:27;100496.22;;;17.64;46.17
13593;BME280;6867;50.998;4.250;2023-04-15T09:12:55;100547.28;;;18.00;46.66
13593;BME280;6867;50.998;4.250;2023-04-15T09:15:23;100521.66;;;17.85;46.42
13593;BME280;6867;50.998;4.250;2023-04-15T09:17:51;100557.53;;;17.87;47.07
13593;BME280;6867;50.998;4.250;2023-04-15T09:20:18;100455.75;;;18.10;44.64
13593;BME280;6867;50.998;4.250;2023-04-15T09:22:46;100389.06;;;17.87;43.31
13593;BME280;6867;50.998;4.250;2023-04-15T09:25:28;100317.78;;;17.70;41.77
13593;BME280;6867;50.998;4.250;2023-04-15T09:27:56;100431.50;;;17.99;43.12
13593;BME280;6867;50.998;4.250;2023-04-15T09:30:24;100532.78;;;18.31;44.57
13593;BME280;6867;50.998;4.250;2023-04-15T09:32:53;100496.34;;;18.37;43.67
13593;BME280;6867;50.998;4.250;2023-04-15T09:35:22;100387.03;;;18.30;42.04
13593;BME280;6867;50.998;4.250;2023-04-15T09:37:49;100477.00;;;18.19;43.25
13593;BME280;6867;50.998;4.250;2023-04-15T09:40:31;100430.94;;;17.97;42.79
13593;BME280;6867;50.998;4.250;2023-04-15T09:42:58;100494.44;;;18.28;43.37
13593;BME280;6867;50.998;4.250;2023-04-15T09:45:26;100416.56;;;18.01;42.05
13593;BME280;6867;50.998;4.250;2023-04-15T09:47:53;100477.44;;;18.05;43.03
13593;BME280;6867;50.998;4.250;2023-04-15T09:50:20;100514.56;;;18.27;43.05
13593;BME280;6867;50.998;4.250;2023-04-15T09:52:47;100439.38;;;17.53;42.74
13593;BME280;6867;50.998;4.250;2023-04-15T09:55:16;100493.25;;;18.13;42.59
13593;BME280;6867;50.998;4.250;2023-04-15T09:57:45;100499.09;;;18.37;42.34
13593;BME280;6867;50.998;4.250;2023-04-15T10:00:13;100539.34;;;18.35;42.97
13593;BME280;6867;50.998;4.250;2023-04-15T10:02:40;100551.31;;;18.39;43.15
13593;BME280;6867;50.998;4.250;2023-04-15T10:05:09;100470.78;;;18.33;41.83
13593;BME280;6867;50.998;4.250;2023-04-15T10:07:37;100500.09;;;18.21;42.47
13593;BME280;6867;50.998;4.250;2023-04-15T10:10:06;100457.00;;;17.92;41.75
13593;BME280;6867;50.998;4.250;2023-04-15T10:12:35;100588.00;;;18.37;43.56
13593;BME280;6867;50.998;4.250;2023-04-15T10:15:05;100659.69;;;18.68;44.41
13593;BME280;6867;50.998;4.250;2023-04-15T10:17:33;100636.88;;;18.69;44.01
13593;BME280;6867;50.998;4.250;2023-04-15T10:20:02;100453.97;;;18.47;41.17
13593;BME280;6867;50.998;4.250;2023-04-15T10:22:29;100478.50;;;18.67;40.62
13593;BME280;6867;50.998;4.250;2023-04-15T10:24:57;100507.81;;;18.39;41.57
13593;BME280;6867;50.998;4.250;2023-04-15T10:27:25;100479.22;;;18.37;40.74
13593;BME280;6867;50.998;4.250;2023-04-15T10:29:53;100535.88;;;18.03;42.17
13593;BME280;6867;50.998;4.250;2023-04-15T10:32:23;100562.22;;;18.50;41.95
13593;BME280;6867;50.998;4.250;2023-04-15T10:34:51;100520.34;;;18.51;41.02
13593;BME280;6867;50.998;4.250;2023-04-15T10:37:33;100535.63;;;18.62;41.18
13593;BME280;6867;50.998;4.250;2023-04-15T10:40:00;100504.03;;;18.56;40.72
13593;BME280;6867;50.998;4.250;2023-04-15T10:42:33;100466.44;;;18.27;40.01
13593;BME280;6867;50.998;4.250;2023-04-15T10:45:00;100382.63;;;18.14;38.54
13593;BME280;6867;50.998;4.250;2023-04-15T10:47:31;100357.81;;;17.85;38.47
13593;BME280;6867;50.998;4.250;2023-04-15T10:50:00;100371.72;;;17.99;38.28
13593;BME280;6867;50.998;4.250;2023-04-15T10:52:28;100354.06;;;18.01;38.07
13593;BME280;6867;50.998;4.250;2023-04-15T10:55:02;100439.78;;;18.34;38.85
13593;BME280;6867;50.998;4.250;2023-04-15T10:57:34;100359.09;;;18.60;37.17
13593;BME280;6867;50.998;4.250;2023-04-15T11:00:09;100319.91;;;18.61;36.28
13593;BME280;6867;50.998;4.250;2023-04-15T11:02:43;100348.19;;;18.50;36.61
13593;BME280;6867;50.998;4.250;2023-04-15T11:05:10;100231.78;;;18.42;34.39
13593;BME280;6867;50.998;4.250;2023-04-15T11:07:39;100276.63;;;18.60;34.65
13593;BME280;6867;50.998;4.250;2023-04-15T11:13:23;100315.00;;;18.33;35.56
13593;BME280;6867;50.998;4.250;2023-04-15T11:15:55;100385.44;;;18.60;35.96
13593;BME280;6867;50.998;4.250;2023-04-15T11:18:26;100458.72;;;18.87;37.02
13593;BME280;6867;50.998;4.250;2023-04-15T11:20:56;100426.63;;;18.94;36.28
13593;BME280;6867;50.998;4.250;2023-04-15T11:23:28;100471.81;;;19.36;36.68
13593;BME280;6867;50.998;4.250;2023-04-15T11:25:55;100365.84;;;19.45;34.67
13593;BME280;6867;50.998;4.250;2023-04-15T11:28:25;100388.75;;;19.33;35.18
13593;BME280;6867;50.998;4.250;2023-04-15T11:30:52;100363.72;;;19.31;34.94
13593;BME280;6867;50.998;4.250;2023-04-15T11:33:20;100254.56;;;19.07;33.63
13593;BME280;6867;50.998;4.250;2023-04-15T11:35:49;100232.03;;;18.66;33.52
13593;BME280;6867;50.998;4.250;2023-04-15T11:38:17;100206.75;;;18.86;32.74
13593;BME280;6867;50.998;4.250;2023-04-15T11:40:44;100274.78;;;18.71;32.74
13593;BME280;6867;50.998;4.250;2023-04-15T11:43:13;100381.38;;;19.34;33.25
13593;BME280;6867;50.998;4.250;2023-04-15T11:45:49;100252.41;;;18.89;31.52
13593;BME280;6867;50.998;4.250;2023-04-15T11:48:16;100347.03;;;19.43;32.36
13593;BME280;6867;50.998;4.250;2023-04-15T11:50:43;100388.69;;;19.59;33.25
13593;BME280;6867;50.998;4.250;2023-04-15T11:53:12;100445.66;;;19.40;34.56
13593;BME280;6867;50.998;4.250;2023-04-15T11:55:41;100415.44;;;19.31;33.90
13593;BME280;6867;50.998;4.250;2023-04-15T11:58:10;100400.22;;;18.89;34.02
13593;BME280;6867;50.998;4.250;2023-04-15T12:00:38;100369.75;;;18.77;33.73
13593;BME280;6867;50.998;4.250;2023-04-15T12:03:20;100288.06;;;18.41;32.64
13593;BME280;6867;50.998;4.250;2023-04-15T12:06:09;100310.13;;;18.60;32.28
13593;BME280;6867;50.998;4.250;2023-04-15T12:08:56;100351.78;;;18.86;32.52
13593;BME280;6867;50.998;4.250;2023-04-15T12:11:29;100285.09;;;18.58;31.93
13593;BME280;6867;50.998;4.250;2023-04-15T12:13:56;100327.44;;;17.98;32.98
13593;BME280;6867;50.998;4.250;2023-04-15T12:16:24;100258.16;;;18.11;31.58
13593;BME280;6867;50.998;4.250;2023-04-15T12:18:52;100322.59;;;18.31;32.29
13593;BME280;6867;50.998;4.250;2023-04-15T12:21:21;100340.00;;;18.35;32.59
13593;BME280;6867;50.998;4.250;2023-04-15T12:23:48;100332.66;;;18.30;32.08
13593;BME280;6867;50.998;4.250;2023-04-15T12:26:17;100389.50;;;18.47;32.94
13593;BME280;6867;50.998;4.250;2023-04-15T12:28:52;100245.66;;;18.51;30.62
13593;BME280;6867;50.998;4.250;2023-04-15T12:31:19;100400.75;;;18.97;32.01
13593;BME280;6867;50.998;4.250;2023-04-15T12:33:47;100537.41;;;19.14;34.36
13593;BME280;6867;50.998;4.250;2023-04-15T12:36:14;100380.00;;;18.45;32.49
13593;BME280;6867;50.998;4.250;2023-04-15T12:38:41;100500.97;;;18.37;34.57
13593;BME280;6867;50.998;4.250;2023-04-15T12:41:07;100552.34;;;18.96;34.53
13593;BME280;6867;50.998;4.250;2023-04-15T12:43:35;100553.19;;;19.07;34.63
13593;BME280;6867;50.998;4.250;2023-04-15T12:46:02;100613.22;;;19.63;34.79
13593;BME280;6867;50.998;4.250;2023-04-15T12:48:29;100444.84;;;18.94;33.23
13593;BME280;6867;50.998;4.250;2023-04-15T12:50:56;100405.22;;;18.20;33.42
13593;BME280;6867;50.998;4.250;2023-04-15T12:53:22;100541.63;;;18.69;34.92
13593;BME280;6867;50.998;4.250;2023-04-15T12:55:49;100499.44;;;18.56;33.99
13593;BME280;6867;50.998;4.250;2023-04-15T12:58:16;100536.44;;;18.67;34.24
13593;BME280;6867;50.998;4.250;2023-04-15T13:00:44;100415.06;;;18.46;32.82
13593;BME280;6867;50.998;4.250;2023-04-15T13:03:11;100588.81;;;18.95;34.91
13593;BME280;6867;50.998;4.250;2023-04-15T13:05:38;100633.50;;;19.04;35.27
13593;BME280;6867;50.998;4.250;2023-04-15T13:08:05;100455.47;;;19.00;32.47
13593;BME280;6867;50.998;4.250;2023-04-15T13:10:32;100543.66;;;19.09;33.57
13593;BME280;6867;50.998;4.250;2023-04-15T13:13:00;100464.41;;;18.70;33.02